createdAt,value
2018-02-21T00:00:13.029Z,65.80
2018-02-21T00:02:40.523Z,68.10
2018-02-21T00:05:07.991Z,70.27
2018-02-21T00:07:35.474Z,66.87
2018-02-21T00:10:02.935Z,67.20
2018-02-21T00:12:30.417Z,56.63
2018-02-21T00:14:57.884Z,64.73
2018-02-21T00:17:25.379Z,59.07
2018-02-21T00:19:52.839Z,63.53
2018-02-21T00:22:20.336Z,67.27
2018-02-21T00:24:47.811Z,68.93
2018-02-21T00:27:15.303Z,70.70
2018-02-21T00:29:42.784Z,78.97
2018-02-21T00:32:10.267Z,63.53
2018-02-21T00:34:37.739Z,75.00
2018-02-21T00:37:05.229Z,76.17
2018-02-21T00:39:32.691Z,67.37
2018-02-21T00:42:00.172Z,68.57
2018-02-21T00:44:27.666Z,63.83
2018-02-21T00:46:55.136Z,62.30
2018-02-21T00:49:22.631Z,66.93
2018-02-21T00:51:50.096Z,65.53
2018-02-21T00:54:17.587Z,59.30
2018-02-21T00:56:45.082Z,67.87
2018-02-21T00:59:12.577Z,73.47
2018-02-21T01:01:40.056Z,71.13
2018-02-21T01:04:07.539Z,74.23
2018-02-21T01:06:35.015Z,76.97
2018-02-21T01:09:02.522Z,67.57
2018-02-21T01:11:30.005Z,75.73
2018-02-21T01:13:57.508Z,71.67
2018-02-21T01:16:24.992Z,72.67
2018-02-21T01:18:52.485Z,76.57
2018-02-21T01:21:19.959Z,73.20
2018-02-21T01:23:47.451Z,75.33
2018-02-21T01:26:14.932Z,81.60
2018-02-21T01:28:42.423Z,76.03
2018-02-21T01:31:09.900Z,89.87
2018-02-21T01:33:37.382Z,86.43
2018-02-21T01:36:04.855Z,82.43
2018-02-21T01:38:32.347Z,80.27
2018-02-21T01:40:59.814Z,75.77
2018-02-21T01:43:27.527Z,82.83
2018-02-21T01:45:54.995Z,86.73
2018-02-21T01:48:22.487Z,86.07
2018-02-21T01:50:52.782Z,74.10
2018-02-21T01:53:20.301Z,75.13
2018-02-21T01:55:47.769Z,74.20
2018-02-21T01:58:15.291Z,85.70
2018-02-21T02:00:42.779Z,84.47
2018-02-21T02:03:10.287Z,74.53
2018-02-21T02:05:37.774Z,77.47
2018-02-21T02:08:05.244Z,73.33
2018-02-21T02:10:32.735Z,74.60
2018-02-21T02:13:00.195Z,71.90
2018-02-21T02:15:27.674Z,81.93
2018-02-21T02:17:55.160Z,84.97
2018-02-21T02:20:23.180Z,78.30
2018-02-21T02:22:50.651Z,81.70
2018-02-21T02:25:18.152Z,80.43
2018-02-21T02:27:45.635Z,78.83
2018-02-21T02:30:13.124Z,81.80
2018-02-21T02:32:40.595Z,72.67
2018-02-21T02:35:08.085Z,79.40
2018-02-21T02:37:35.547Z,70.73
2018-02-21T02:40:03.047Z,80.03
2018-02-21T02:42:30.520Z,87.73
2018-02-21T02:44:58.011Z,85.13
2018-02-21T02:47:25.521Z,84.23
2018-02-21T02:49:53.008Z,83.90
2018-02-21T02:52:20.496Z,85.13
2018-02-21T02:54:47.995Z,85.27
2018-02-21T02:57:15.472Z,84.67
2018-02-21T02:59:42.963Z,99.43
2018-02-21T03:02:10.449Z,95.40
2018-02-21T03:04:37.945Z,88.47
2018-02-21T03:07:05.412Z,85.63
2018-02-21T03:09:32.903Z,88.00
2018-02-21T03:12:00.375Z,96.00
2018-02-21T03:14:27.871Z,97.27
2018-02-21T03:16:55.347Z,89.13
2018-02-21T03:19:22.834Z,90.80
2018-02-21T03:21:50.295Z,85.40
2018-02-21T03:24:17.783Z,81.77
2018-02-21T03:26:45.261Z,84.07
2018-02-21T03:29:12.732Z,74.73
2018-02-21T03:31:40.228Z,83.97
2018-02-21T03:34:07.711Z,81.30
2018-02-21T03:36:35.207Z,84.00
2018-02-21T03:39:02.676Z,82.07
2018-02-21T03:41:30.182Z,80.70
2018-02-21T03:43:57.646Z,80.20
2018-02-21T03:46:25.136Z,84.67
2018-02-21T03:48:52.632Z,82.70
2018-02-21T03:51:20.127Z,77.60
2018-02-21T03:53:47.591Z,80.23
2018-02-21T03:56:15.079Z,79.53
2018-02-21T03:58:42.547Z,81.50
2018-02-21T04:01:10.047Z,81.73
2018-02-21T04:03:37.520Z,82.63
2018-02-21T04:06:05.012Z,79.20
2018-02-21T04:08:32.489Z,81.50
2018-02-21T04:10:59.971Z,84.40
2018-02-21T04:13:27.434Z,75.77
2018-02-21T04:15:54.922Z,73.80
2018-02-21T04:18:22.392Z,77.33
2018-02-21T04:20:49.895Z,74.90
2018-02-21T04:23:17.372Z,76.83
2018-02-21T04:25:44.854Z,76.33
2018-02-21T04:28:12.324Z,77.70
2018-02-21T04:30:39.811Z,71.47
2018-02-21T04:33:07.278Z,75.20
2018-02-21T04:35:34.768Z,80.50
2018-02-21T04:38:02.237Z,79.90
2018-02-21T04:40:29.735Z,80.93
2018-02-21T04:42:57.199Z,76.73
2018-02-21T04:45:24.700Z,84.07
2018-02-21T04:47:52.168Z,75.03
2018-02-21T04:50:19.659Z,79.07
2018-02-21T04:52:47.142Z,72.83
2018-02-21T04:55:20.136Z,79.43
2018-02-21T05:00:54.444Z,80.20
2018-02-21T05:03:21.924Z,81.77
2018-02-21T05:05:49.427Z,76.10
2018-02-21T05:08:16.903Z,75.50
2018-02-21T05:10:44.367Z,79.50
2018-02-21T05:13:11.867Z,78.70
2018-02-21T05:15:39.347Z,73.70
2018-02-21T05:18:06.840Z,75.83
2018-02-21T05:20:34.313Z,75.93
2018-02-21T05:23:01.823Z,75.07
2018-02-21T05:25:29.282Z,83.03
2018-02-21T05:27:56.792Z,79.33
2018-02-21T05:30:24.263Z,81.83
2018-02-21T05:32:51.754Z,85.43
2018-02-21T05:35:19.243Z,87.20
2018-02-21T05:37:46.735Z,85.40
2018-02-21T05:40:14.209Z,85.17
2018-02-21T05:42:41.708Z,88.10
2018-02-21T05:45:09.557Z,76.73
2018-02-21T05:47:37.057Z,84.20
2018-02-21T05:50:04.523Z,78.17
2018-02-21T05:52:32.018Z,77.23
2018-02-21T05:54:59.500Z,74.77
2018-02-21T05:57:26.999Z,86.40
2018-02-21T05:59:54.471Z,80.90
2018-02-21T06:02:21.975Z,84.83
2018-02-21T06:04:49.463Z,95.00
2018-02-21T06:07:16.962Z,89.53
2018-02-21T06:09:44.433Z,85.73
2018-02-21T06:12:11.926Z,84.40
2018-02-21T06:14:39.423Z,107.27
2018-02-21T06:17:06.919Z,86.53
2018-02-21T06:19:34.399Z,87.13
2018-02-21T06:22:03.301Z,90.40
2018-02-21T06:24:30.784Z,90.37
2018-02-21T06:26:58.250Z,97.03
2018-02-21T06:29:25.755Z,90.67
2018-02-21T06:31:53.219Z,98.50
2018-02-21T06:34:20.723Z,94.57
2018-02-21T06:36:49.318Z,98.97
2018-02-21T06:39:16.837Z,91.33
2018-02-21T06:41:44.311Z,94.77
2018-02-21T06:44:11.808Z,93.70
2018-02-21T06:46:39.288Z,102.17
2018-02-21T06:49:06.796Z,103.40
2018-02-21T06:51:34.294Z,108.90
2018-02-21T06:54:02.016Z,105.30
2018-02-21T06:56:29.491Z,109.90
2018-02-21T07:01:30.919Z,114.77
2018-02-21T07:03:58.415Z,99.77
2018-02-21T07:06:25.900Z,103.70
2018-02-21T07:08:53.395Z,97.83
2018-02-21T07:11:20.885Z,101.20
2018-02-21T07:13:48.380Z,114.17
2018-02-21T07:16:15.876Z,110.30
2018-02-21T07:18:43.367Z,103.17
2018-02-21T07:21:10.839Z,104.97
2018-02-21T07:23:38.339Z,108.33
2018-02-21T07:26:05.811Z,112.80
2018-02-21T07:28:33.311Z,109.67
2018-02-21T07:31:00.782Z,108.13
2018-02-21T07:33:28.274Z,111.77
2018-02-21T07:35:55.751Z,108.83
2018-02-21T07:38:23.259Z,109.17
2018-02-21T07:40:50.764Z,102.60
2018-02-21T07:43:18.266Z,105.77
2018-02-21T07:45:45.741Z,97.30
2018-02-21T07:48:13.243Z,101.27
2018-02-21T07:50:40.719Z,96.33
2018-02-21T07:53:08.195Z,96.93
2018-02-21T07:55:35.684Z,97.13
2018-02-21T07:58:03.159Z,92.87
2018-02-21T08:00:30.663Z,101.47
2018-02-21T08:02:58.170Z,95.10
2018-02-21T08:05:25.644Z,99.40
2018-02-21T08:07:53.114Z,94.67
2018-02-21T08:10:20.599Z,92.83
2018-02-21T08:12:53.585Z,94.67
2018-02-21T08:15:21.129Z,91.60
2018-02-21T08:17:48.574Z,86.80
2018-02-21T08:20:16.064Z,91.33
2018-02-21T08:22:43.523Z,83.20
2018-02-21T08:25:11.019Z,87.60
2018-02-21T08:27:38.479Z,87.20
2018-02-21T08:30:05.967Z,86.43
2018-02-21T08:32:33.427Z,86.03
2018-02-21T08:35:00.920Z,83.23
2018-02-21T08:37:28.400Z,82.97
2018-02-21T08:39:55.884Z,74.33
2018-02-21T08:42:23.343Z,78.97
2018-02-21T08:44:50.847Z,82.77
2018-02-21T08:47:18.303Z,83.63
2018-02-21T08:49:45.788Z,81.97
2018-02-21T08:52:13.271Z,77.93
2018-02-21T08:54:40.761Z,78.37
2018-02-21T08:57:08.232Z,75.83
2018-02-21T08:59:35.715Z,80.87
2018-02-21T09:02:03.183Z,76.47
2018-02-21T09:04:30.662Z,78.63
2018-02-21T09:06:58.122Z,80.37
2018-02-21T09:09:25.603Z,77.67
2018-02-21T09:11:53.070Z,71.00
2018-02-21T09:14:20.555Z,73.73
2018-02-21T09:16:48.032Z,76.67
2018-02-21T09:19:15.491Z,75.30
2018-02-21T09:21:43.734Z,78.40
2018-02-21T09:24:11.436Z,75.97
2018-02-21T09:26:39.167Z,77.87
2018-02-21T09:29:06.652Z,71.63
2018-02-21T09:31:34.376Z,64.93
2018-02-21T09:34:03.100Z,68.90
2018-02-21T09:36:30.647Z,72.97
2018-02-21T09:38:58.175Z,68.57
2018-02-21T09:41:25.888Z,67.37
2018-02-21T09:43:53.855Z,74.90
2018-02-21T09:46:21.741Z,70.93
2018-02-21T09:48:49.503Z,71.47
2018-02-21T09:51:17.015Z,67.00
2018-02-21T09:53:45.256Z,67.83
2018-02-21T09:56:12.777Z,70.77
2018-02-21T09:58:40.239Z,65.30
2018-02-21T10:01:07.752Z,65.00
2018-02-21T10:03:35.600Z,67.60
2018-02-21T10:06:03.083Z,64.43
2018-02-21T10:08:30.838Z,67.90
2018-02-21T10:10:58.339Z,63.40
2018-02-21T10:13:25.827Z,63.07
2018-02-21T10:15:53.568Z,64.13
2018-02-21T10:18:21.476Z,67.20
2018-02-21T10:20:50.314Z,63.47
2018-02-21T10:23:18.719Z,67.70
2018-02-21T10:25:47.143Z,66.63
2018-02-21T10:28:14.621Z,66.97
2018-02-21T10:30:42.116Z,66.07
2018-02-21T10:33:09.587Z,55.37
2018-02-21T10:35:37.346Z,52.87
2018-02-21T10:38:05.656Z,55.23
2018-02-21T10:40:33.372Z,56.40
2018-02-21T10:43:00.925Z,52.37
2018-02-21T10:45:28.432Z,52.50
2018-02-21T10:47:55.980Z,54.00
2018-02-21T10:50:23.868Z,57.00
2018-02-21T10:52:51.920Z,53.63
2018-02-21T10:55:19.378Z,55.03
2018-02-21T10:57:46.854Z,56.43
2018-02-21T11:00:19.858Z,55.63
2018-02-21T11:02:47.992Z,54.93
2018-02-21T11:05:15.687Z,59.10
2018-02-21T11:07:44.134Z,61.10
2018-02-21T11:10:12.060Z,60.43
2018-02-21T11:12:39.559Z,61.20
2018-02-21T11:15:07.295Z,58.37
2018-02-21T11:17:35.066Z,55.23
2018-02-21T11:20:02.980Z,57.90
2018-02-21T11:22:31.223Z,55.37
2018-02-21T11:24:59.097Z,58.57
2018-02-21T11:27:27.497Z,55.57
2018-02-21T11:29:55.005Z,54.90
2018-02-21T11:32:22.491Z,62.20
2018-02-21T11:34:50.382Z,59.43
2018-02-21T11:37:17.889Z,59.23
2018-02-21T11:39:45.423Z,62.23
2018-02-21T11:42:13.181Z,62.73
2018-02-21T11:44:40.986Z,55.30
2018-02-21T11:47:08.714Z,59.00
2018-02-21T11:49:36.204Z,58.80
2018-02-21T11:52:04.407Z,63.50
2018-02-21T11:54:31.884Z,60.33
2018-02-21T11:56:59.688Z,55.60
2018-02-21T11:59:27.650Z,63.13
2018-02-21T12:01:55.984Z,63.00
2018-02-21T12:04:23.472Z,59.57
2018-02-21T12:06:50.976Z,56.93
2018-02-21T12:09:19.292Z,57.97
2018-02-21T12:11:46.788Z,63.33
2018-02-21T12:14:14.900Z,60.70
2018-02-21T12:16:42.769Z,61.57
2018-02-21T12:19:10.546Z,59.17
2018-02-21T12:21:38.034Z,63.60
2018-02-21T12:24:06.237Z,61.90
2018-02-21T12:26:33.812Z,68.27
2018-02-21T12:29:01.305Z,82.10
2018-02-21T12:31:29.740Z,80.17
2018-02-21T12:33:57.747Z,73.00
2018-02-21T12:36:25.447Z,70.87
2018-02-21T12:38:58.497Z,81.47
2018-02-21T12:41:43.117Z,78.33
2018-02-21T12:44:11.299Z,70.87
2018-02-21T12:46:38.772Z,82.30
2018-02-21T12:49:06.263Z,76.60
2018-02-21T12:51:33.732Z,76.77
2018-02-21T12:54:01.615Z,68.03
2018-02-21T12:56:29.070Z,74.67
2018-02-21T12:58:57.485Z,68.93
2018-02-21T13:01:25.868Z,73.30
2018-02-21T13:03:53.645Z,70.83
2018-02-21T13:06:21.155Z,71.17
2018-02-21T13:08:48.684Z,74.90
2018-02-21T13:11:16.674Z,72.33
2018-02-21T13:13:44.618Z,68.33
2018-02-21T13:16:12.085Z,67.23
2018-02-21T13:18:40.363Z,61.60
2018-02-21T13:21:07.878Z,67.03
2018-02-21T13:23:35.615Z,72.03
2018-02-21T13:26:03.883Z,68.03
2018-02-21T13:28:31.592Z,67.27
2018-02-21T13:30:59.983Z,67.33
2018-02-21T13:33:27.476Z,67.60
2018-02-21T13:35:54.990Z,59.67
2018-02-21T13:38:22.483Z,65.40
2018-02-21T13:40:49.951Z,56.53
2018-02-21T13:43:17.441Z,62.60
2018-02-21T13:45:44.910Z,55.27
2018-02-21T13:48:12.395Z,57.83
2018-02-21T13:50:39.859Z,54.43
2018-02-21T13:53:07.339Z,50.00
2018-02-21T13:55:34.800Z,48.50
2018-02-21T13:58:02.310Z,51.93
2018-02-21T14:00:29.779Z,49.43
2018-02-21T14:02:57.249Z,50.43
2018-02-21T14:05:24.737Z,51.00
2018-02-21T14:07:52.207Z,51.40
2018-02-21T14:10:19.693Z,50.97
2018-02-21T14:12:47.168Z,50.93
2018-02-21T14:15:14.655Z,48.10
2018-02-21T14:17:42.115Z,49.30
2018-02-21T14:20:09.595Z,50.43
2018-02-21T14:22:37.059Z,47.57
2018-02-21T14:25:04.547Z,44.67
2018-02-21T14:27:32.033Z,46.40
2018-02-21T14:29:59.538Z,47.40
2018-02-21T14:32:27.016Z,43.87
2018-02-21T14:34:54.503Z,42.17
2018-02-21T14:37:21.979Z,44.30
2018-02-21T14:39:49.471Z,44.73
2018-02-21T14:42:16.935Z,47.53
2018-02-21T14:44:44.414Z,45.37
2018-02-21T14:47:11.883Z,45.17
2018-02-21T14:49:39.375Z,41.20
2018-02-21T14:52:06.875Z,41.67
2018-02-21T14:54:34.368Z,43.67
2018-02-21T14:57:01.836Z,42.53
2018-02-21T14:59:29.327Z,46.77
2018-02-21T15:01:56.799Z,45.10
2018-02-21T15:04:24.287Z,46.43
2018-02-21T15:06:51.751Z,42.33
2018-02-21T15:09:19.239Z,40.57
2018-02-21T15:11:46.705Z,39.33
2018-02-21T15:14:14.183Z,42.63
2018-02-21T15:16:41.655Z,40.00
2018-02-21T15:19:09.141Z,34.30
2018-02-21T15:21:36.610Z,33.00
2018-02-21T15:24:04.281Z,35.90
2018-02-21T15:26:31.807Z,31.63
2018-02-21T15:28:59.300Z,35.93
2018-02-21T15:31:26.787Z,34.40
2018-02-21T15:33:54.255Z,32.73
2018-02-21T15:36:21.751Z,32.03
2018-02-21T15:38:49.253Z,31.70
2018-02-21T15:41:16.719Z,32.20
2018-02-21T15:43:44.183Z,23.23
2018-02-21T15:46:11.675Z,30.60
2018-02-21T15:48:39.171Z,27.67
2018-02-21T15:51:06.667Z,31.27
2018-02-21T15:53:34.145Z,28.70
2018-02-21T15:56:01.642Z,30.60
2018-02-21T15:58:29.112Z,29.10
2018-02-21T16:00:56.598Z,34.27
2018-02-21T16:03:24.080Z,27.60
2018-02-21T16:05:51.583Z,31.43
2018-02-21T16:08:19.064Z,33.50
2018-02-21T16:10:46.557Z,33.20
2018-02-21T16:13:14.023Z,31.57
2018-02-21T16:15:41.520Z,38.40
2018-02-21T16:18:09.007Z,40.03
2018-02-21T16:20:36.493Z,34.90
2018-02-21T16:23:03.959Z,37.63
2018-02-21T16:25:31.444Z,38.27
2018-02-21T16:27:58.932Z,38.37
2018-02-21T16:30:26.439Z,41.00
2018-02-21T16:32:55.240Z,37.20
2018-02-21T16:35:22.744Z,39.47
2018-02-21T16:37:50.211Z,38.77
2018-02-21T16:40:17.690Z,40.70
2018-02-21T16:42:45.163Z,40.00
2018-02-21T16:45:12.675Z,40.27
2018-02-21T16:47:40.168Z,43.80
2018-02-21T16:50:07.672Z,52.87
2018-02-21T16:52:35.166Z,52.03
2018-02-21T16:55:02.664Z,50.53
2018-02-21T16:57:30.153Z,39.97
2018-02-21T16:59:57.620Z,39.33
2018-02-21T17:02:25.099Z,40.60
2018-02-21T17:04:52.575Z,40.27
2018-02-21T17:07:20.063Z,40.57
2018-02-21T17:09:47.551Z,43.83
2018-02-21T17:12:15.075Z,38.53
2018-02-21T17:14:43.431Z,37.57
2018-02-21T17:17:10.945Z,42.53
2018-02-21T17:19:38.424Z,38.27
2018-02-21T17:22:05.923Z,40.60
2018-02-21T17:24:33.425Z,41.23
2018-02-21T17:27:00.922Z,40.90
2018-02-21T17:29:28.412Z,42.33
2018-02-21T17:31:55.944Z,39.60
2018-02-21T17:34:23.411Z,41.17
2018-02-21T17:36:51.147Z,49.73
2018-02-21T17:39:18.651Z,41.83
2018-02-21T17:41:46.143Z,43.63
2018-02-21T17:44:15.087Z,41.43
2018-02-21T17:46:42.984Z,47.43
2018-02-21T17:49:10.507Z,49.97
2018-02-21T17:51:38.021Z,46.50
2018-02-21T17:54:05.501Z,48.17
2018-02-21T17:56:33.000Z,47.13
2018-02-21T17:59:00.484Z,46.33
2018-02-21T18:01:28.045Z,45.50
2018-02-21T18:03:55.530Z,43.90
2018-02-21T18:06:23.164Z,41.67
2018-02-21T18:08:50.668Z,44.30
2018-02-21T18:11:18.158Z,46.67
2018-02-21T18:13:45.636Z,43.83
2018-02-21T18:16:13.136Z,44.07
2018-02-21T18:18:40.603Z,40.53
2018-02-21T18:21:08.075Z,39.13
2018-02-21T18:23:35.567Z,41.13
2018-02-21T18:26:03.039Z,41.10
2018-02-21T18:28:30.525Z,43.30
2018-02-21T18:30:58.000Z,35.27
2018-02-21T18:33:27.491Z,42.10
2018-02-21T18:35:54.966Z,48.17
2018-02-21T18:38:22.444Z,34.33
2018-02-21T18:40:49.913Z,35.30
2018-02-21T18:43:17.427Z,38.37
2018-02-21T18:48:26.911Z,41.03
2018-02-21T18:50:54.371Z,36.57
2018-02-21T18:53:21.874Z,32.67
2018-02-21T18:55:49.341Z,34.10
2018-02-21T18:58:16.830Z,36.47
2018-02-21T19:00:44.401Z,38.03
2018-02-21T19:03:11.889Z,37.47
2018-02-21T19:05:39.371Z,32.00
2018-02-21T19:08:06.877Z,36.17
2018-02-21T19:10:34.349Z,34.60
2018-02-21T19:13:01.864Z,40.13
2018-02-21T19:15:29.380Z,35.60
2018-02-21T19:17:56.899Z,34.50
2018-02-21T19:20:24.362Z,34.43
2018-02-21T19:22:51.861Z,35.63
2018-02-21T19:25:19.325Z,35.33
2018-02-21T19:27:46.808Z,32.63
2018-02-21T19:30:15.007Z,33.97
2018-02-21T19:32:42.504Z,31.43
2018-02-21T19:35:09.964Z,30.23
2018-02-21T19:37:37.444Z,33.30
2018-02-21T19:40:04.907Z,36.70
2018-02-21T19:42:32.389Z,32.30
2018-02-21T19:44:59.858Z,33.33
2018-02-21T19:47:27.335Z,34.33
2018-02-21T19:49:54.820Z,33.47
2018-02-21T19:52:22.301Z,31.07
2018-02-21T19:54:49.793Z,32.13
2018-02-21T19:57:17.259Z,33.17
2018-02-21T19:59:44.747Z,34.37
2018-02-21T20:02:12.206Z,33.00
2018-02-21T20:04:39.692Z,35.23
2018-02-21T20:07:07.159Z,34.23
2018-02-21T20:09:34.653Z,34.40
2018-02-21T20:12:02.136Z,34.23
2018-02-21T20:14:29.615Z,33.37
2018-02-21T20:16:57.080Z,33.80
2018-02-21T20:19:24.562Z,34.23
2018-02-21T20:21:52.032Z,33.37
2018-02-21T20:24:19.576Z,31.80
2018-02-21T20:26:47.035Z,38.40
2018-02-21T20:29:14.526Z,37.17
2018-02-21T20:31:41.991Z,36.20
2018-02-21T20:34:09.480Z,37.73
2018-02-21T20:36:36.954Z,39.13
2018-02-21T20:39:04.467Z,38.63
2018-02-21T20:41:31.940Z,39.40
2018-02-21T20:43:59.429Z,34.77
2018-02-21T20:46:26.903Z,37.40
2018-02-21T20:48:54.387Z,39.33
2018-02-21T20:51:21.846Z,38.00
2018-02-21T20:53:49.343Z,39.47
2018-02-21T20:56:16.816Z,36.43
2018-02-21T20:58:44.302Z,34.07
2018-02-21T21:01:11.779Z,33.10
2018-02-21T21:03:39.262Z,37.40
2018-02-21T21:06:06.731Z,34.77
2018-02-21T21:08:34.256Z,37.87
2018-02-21T21:11:01.732Z,35.77
2018-02-21T21:13:29.207Z,38.67
2018-02-21T21:15:56.715Z,38.27
2018-02-21T21:18:24.187Z,35.73
2018-02-21T21:20:51.687Z,37.40
2018-02-21T21:23:19.154Z,36.20
2018-02-21T21:25:46.654Z,35.97
2018-02-21T21:28:14.189Z,37.90
2018-02-21T21:30:41.671Z,32.17
2018-02-21T21:33:09.153Z,37.93
2018-02-21T21:35:36.651Z,35.03
2018-02-21T21:38:04.127Z,33.93
2018-02-21T21:40:31.627Z,36.60
2018-02-21T21:42:59.095Z,38.03
2018-02-21T21:45:26.591Z,37.07
2018-02-21T21:47:54.066Z,36.97
2018-02-21T21:50:21.555Z,38.13
2018-02-21T21:52:49.035Z,36.77
2018-02-21T21:55:16.524Z,38.73
2018-02-21T21:57:44.015Z,40.17
2018-02-21T22:00:11.503Z,37.50
2018-02-21T22:02:38.983Z,34.40
2018-02-21T22:05:06.475Z,34.87
2018-02-21T22:07:33.938Z,35.03
2018-02-21T22:10:01.434Z,36.37
2018-02-21T22:12:28.906Z,37.80
2018-02-21T22:14:56.452Z,38.70
2018-02-21T22:17:23.927Z,38.77
2018-02-21T22:19:51.420Z,40.77
2018-02-21T22:22:19.631Z,42.83
2018-02-21T22:24:47.119Z,38.10
2018-02-21T22:27:14.580Z,37.90
2018-02-21T22:29:42.124Z,35.33
2018-02-21T22:32:09.595Z,39.90
2018-02-21T22:34:37.075Z,39.93
2018-02-21T22:37:04.566Z,40.43
2018-02-21T22:39:32.035Z,37.47
2018-02-21T22:41:59.515Z,39.97
2018-02-21T22:44:27.008Z,38.10
2018-02-21T22:46:54.495Z,40.73
2018-02-21T22:49:21.972Z,40.77
2018-02-21T22:51:49.459Z,36.10
2018-02-21T22:54:16.931Z,40.07
2018-02-21T22:56:44.414Z,38.83
2018-02-21T22:59:11.882Z,40.03
2018-02-21T23:01:39.375Z,39.23
2018-02-21T23:04:06.851Z,38.27
2018-02-21T23:06:34.691Z,40.57
2018-02-21T23:09:02.154Z,43.37
2018-02-21T23:11:29.659Z,40.53
2018-02-21T23:13:57.152Z,39.23
2018-02-21T23:16:24.651Z,40.00
2018-02-21T23:18:52.127Z,41.77
2018-02-21T23:21:19.610Z,38.07
2018-02-21T23:23:47.082Z,40.67
2018-02-21T23:26:14.570Z,41.47
2018-02-21T23:28:42.035Z,40.17
2018-02-21T23:31:09.519Z,39.03
2018-02-21T23:33:36.988Z,37.27
2018-02-21T23:36:04.480Z,37.33
2018-02-21T23:38:31.957Z,38.70
2018-02-21T23:40:59.462Z,39.50
2018-02-21T23:43:26.925Z,35.17
2018-02-21T23:45:54.403Z,38.73
2018-02-21T23:48:21.876Z,35.30
2018-02-21T23:50:49.384Z,38.60
2018-02-21T23:53:16.863Z,37.50
2018-02-21T23:55:44.367Z,37.87
2018-02-21T23:58:11.844Z,37.20
